sensor_id;sensor_type;location;lat;lon;timestamp;pressure;altitude;pressure_sealevel;temperature;humidity
55317;BME280;41178;48.956;8.130;2023-07-20T00:03:16;99611.81;;;19.66;40.74
55317;BME280;41178;48.956;8.130;2023-07-20T00:08:20;99572.09;;;19.99;40.08
55317;BME280;41178;48.956;8.130;2023-07-20T00:13:22;99650.03;;;19.31;40.97
55317;BME280;41178;48.956;8.130;2023-07-20T00:18:24;99560.69;;;21.38;38.52
55317;BME280;41178;48.956;8.130;2023-07-20T00:23:26;99652.25;;;19.85;40.18
55317;BME280;41178;48.956;8.130;2023-07-20T00:28:27;99588.38;;;21.30;38.61
55317;BME280;41178;48.956;8.130;2023-07-20T00:33:29;99705.47;;;20.03;39.60
55317;BME280;41178;48.956;8.130;2023-07-20T00:38:31;99697.69;;;19.55;40.49
55317;BME280;41178;48.956;8.130;2023-07-20T00:43:33;99643.41;;;19.72;40.58
55317;BME280;41178;48.956;8.130;2023-07-20T00:48:35;99599.91;;;21.10;39.45
55317;BME280;41178;48.956;8.130;2023-07-20T00:53:37;99655.88;;;21.33;38.96
55317;BME280;41178;48.956;8.130;2023-07-20T00:58:39;99656.03;;;20.89;39.73
55317;BME280;41178;48.956;8.130;2023-07-20T01:03:58;99680.19;;;20.63;39.89
55317;BME280;41178;48.956;8.130;2023-07-20T01:14:06;99664.97;;;20.40;40.03
55317;BME280;41178;48.956;8.130;2023-07-20T01:19:08;99591.78;;;21.42;39.13
55317;BME280;41178;48.956;8.130;2023-07-20T01:34:35;99646.34;;;21.31;39.01
55317;BME280;41178;48.956;8.130;2023-07-20T01:39:38;99629.84;;;21.80;38.46
55317;BME280;41178;48.956;8.130;2023-07-20T01:44:40;99671.00;;;21.19;39.29
55317;BME280;41178;48.956;8.130;2023-07-20T01:49:42;99672.53;;;21.10;39.50
55317;BME280;41178;48.956;8.130;2023-07-20T01:54:44;99694.91;;;20.23;40.71
55317;BME280;41178;48.956;8.130;2023-07-20T01:59:45;99658.50;;;20.68;39.89
55317;BME280;41178;48.956;8.130;2023-07-20T02:04:47;99604.69;;;21.30;39.78
55317;BME280;41178;48.956;8.130;2023-07-20T02:09:49;99616.31;;;21.20;39.81
55317;BME280;41178;48.956;8.130;2023-07-20T02:14:50;99623.94;;;20.64;40.65
55317;BME280;41178;48.956;8.130;2023-07-20T02:19:53;99661.75;;;20.43;40.63
55317;BME280;41178;48.956;8.130;2023-07-20T02:24:56;99624.19;;;20.62;40.29
55317;BME280;41178;48.956;8.130;2023-07-20T02:29:58;99629.47;;;20.25;41.43
55317;BME280;41178;48.956;8.130;2023-07-20T02:34:59;99592.94;;;20.87;40.45
55317;BME280;41178;48.956;8.130;2023-07-20T02:40:01;99612.81;;;21.63;39.21
55317;BME280;41178;48.956;8.130;2023-07-20T02:45:05;99655.31;;;20.99;40.34
55317;BME280;41178;48.956;8.130;2023-07-20T02:50:08;99725.44;;;19.29;42.21
55317;BME280;41178;48.956;8.130;2023-07-20T02:55:09;99598.19;;;20.22;41.50
55317;BME280;41178;48.956;8.130;2023-07-20T03:00:12;99666.25;;;19.76;42.11
55317;BME280;41178;48.956;8.130;2023-07-20T03:05:17;99620.91;;;20.16;41.55
55317;BME280;41178;48.956;8.130;2023-07-20T03:10:18;99615.97;;;20.57;41.01
55317;BME280;41178;48.956;8.130;2023-07-20T03:15:20;99623.16;;;20.41;41.19
55317;BME280;41178;48.956;8.130;2023-07-20T03:20:22;99651.59;;;19.94;41.69
55317;BME280;41178;48.956;8.130;2023-07-20T03:25:24;99677.56;;;19.23;42.32
55317;BME280;41178;48.956;8.130;2023-07-20T03:30:29;99637.28;;;19.31;42.71
55317;BME280;41178;48.956;8.130;2023-07-20T03:35:30;99585.72;;;19.48;42.74
55317;BME280;41178;48.956;8.130;2023-07-20T03:40:32;99651.78;;;19.20;42.64
55317;BME280;41178;48.956;8.130;2023-07-20T03:45:34;99655.03;;;20.51;40.63
55317;BME280;41178;48.956;8.130;2023-07-20T03:50:36;99666.06;;;19.49;42.42
55317;BME280;41178;48.956;8.130;2023-07-20T03:55:37;99687.38;;;19.91;41.52
55317;BME280;41178;48.956;8.130;2023-07-20T04:00:39;99683.50;;;19.53;42.43
55317;BME280;41178;48.956;8.130;2023-07-20T04:05:42;99687.44;;;19.12;43.33
55317;BME280;41178;48.956;8.130;2023-07-20T04:10:44;99649.97;;;19.43;42.74
55317;BME280;41178;48.956;8.130;2023-07-20T04:15:46;99637.78;;;17.89;45.59
55317;BME280;41178;48.956;8.130;2023-07-20T04:20:48;99573.44;;;19.57;43.24
55317;BME280;41178;48.956;8.130;2023-07-20T04:25:50;99599.28;;;20.21;42.10
55317;BME280;41178;48.956;8.130;2023-07-20T04:30:53;99660.97;;;19.87;42.02
55317;BME280;41178;48.956;8.130;2023-07-20T04:35:55;99644.94;;;20.24;41.73
55317;BME280;41178;48.956;8.130;2023-07-20T04:40:57;99687.72;;;19.61;42.40
55317;BME280;41178;48.956;8.130;2023-07-20T04:45:58;99686.44;;;19.18;43.23
55317;BME280;41178;48.956;8.130;2023-07-20T04:51:00;99707.91;;;18.38;44.59
55317;BME280;41178;48.956;8.130;2023-07-20T04:56:04;99615.66;;;19.02;44.19
55317;BME280;41178;48.956;8.130;2023-07-20T05:05:22;99613.31;;;16.65;48.38
55317;BME280;41178;48.956;8.130;2023-07-20T05:10:24;99577.28;;;17.13;48.00
55317;BME280;41178;48.956;8.130;2023-07-20T05:15:25;99637.59;;;16.34;49.61
55317;BME280;41178;48.956;8.130;2023-07-20T05:20:27;99639.75;;;17.35;47.12
55317;BME280;41178;48.956;8.130;2023-07-20T05:25:29;99554.00;;;17.35;48.20
55317;BME280;41178;48.956;8.130;2023-07-20T05:30:32;99659.59;;;16.68;48.96
55317;BME280;41178;48.956;8.130;2023-07-20T05:35:33;99653.47;;;16.91;48.22
55317;BME280;41178;48.956;8.130;2023-07-20T05:40:40;99577.59;;;18.52;46.48
55317;BME280;41178;48.956;8.130;2023-07-20T05:45:43;99587.50;;;19.20;45.19
55317;BME280;41178;48.956;8.130;2023-07-20T05:50:46;99726.72;;;18.57;45.97
55317;BME280;41178;48.956;8.130;2023-07-20T05:55:54;99658.97;;;18.57;46.00
55317;BME280;41178;48.956;8.130;2023-07-20T06:00:56;99676.50;;;18.02;47.39
55317;BME280;41178;48.956;8.130;2023-07-20T06:06:02;99655.69;;;18.55;46.58
55317;BME280;41178;48.956;8.130;2023-07-20T06:11:04;99777.50;;;18.14;46.78
55317;BME280;41178;48.956;8.130;2023-07-20T06:16:06;99685.38;;;18.90;46.33
55317;BME280;41178;48.956;8.130;2023-07-20T06:21:07;99695.88;;;18.58;47.11
55317;BME280;41178;48.956;8.130;2023-07-20T06:26:09;99666.16;;;19.20;46.07
55317;BME280;41178;48.956;8.130;2023-07-20T06:31:11;99688.91;;;19.36;45.80
55317;BME280;41178;48.956;8.130;2023-07-20T06:36:13;99702.66;;;19.47;46.02
55317;BME280;41178;48.956;8.130;2023-07-20T06:41:15;99730.84;;;19.74;44.49
55317;BME280;41178;48.956;8.130;2023-07-20T06:46:19;99776.63;;;18.96;46.97
55317;BME280;41178;48.956;8.130;2023-07-20T06:51:22;99801.19;;;18.54;47.42
55317;BME280;41178;48.956;8.130;2023-07-20T06:56:24;99768.16;;;18.69;47.27
55317;BME280;41178;48.956;8.130;2023-07-20T07:01:28;99702.09;;;19.79;45.42
55317;BME280;41178;48.956;8.130;2023-07-20T07:06:30;99705.72;;;20.01;45.21
55317;BME280;41178;48.956;8.130;2023-07-20T07:11:31;99776.53;;;19.20;45.91
55317;BME280;41178;48.956;8.130;2023-07-20T07:16:33;99771.22;;;19.25;45.40
55317;BME280;41178;48.956;8.130;2023-07-20T07:21:39;99687.47;;;20.36;44.30
55317;BME280;41178;48.956;8.130;2023-07-20T07:26:41;99732.06;;;19.67;44.82
55317;BME280;41178;48.956;8.130;2023-07-20T07:31:43;99689.75;;;20.05;44.21
55317;BME280;41178;48.956;8.130;2023-07-20T07:36:45;99752.56;;;19.74;44.38
55317;BME280;41178;48.956;8.130;2023-07-20T07:41:46;99754.22;;;19.75;44.11
55317;BME280;41178;48.956;8.130;2023-07-20T07:46:48;99804.25;;;19.22;44.31
55317;BME280;41178;48.956;8.130;2023-07-20T07:51:50;99814.31;;;19.10;44.06
55317;BME280;41178;48.956;8.130;2023-07-20T07:56:52;99737.22;;;19.85;44.15
55317;BME280;41178;48.956;8.130;2023-07-20T08:01:54;99770.59;;;19.52;44.10
55317;BME280;41178;48.956;8.130;2023-07-20T08:06:56;99748.44;;;18.97;44.66
55317;BME280;41178;48.956;8.130;2023-07-20T08:11:57;99704.97;;;19.89;44.18
55317;BME280;41178;48.956;8.130;2023-07-20T08:16:59;99779.88;;;20.19;42.41
55317;BME280;41178;48.956;8.130;2023-07-20T08:22:01;99842.31;;;19.27;43.33
55317;BME280;41178;48.956;8.130;2023-07-20T08:27:03;99792.78;;;19.94;42.55
55317;BME280;41178;48.956;8.130;2023-07-20T08:32:06;99758.38;;;20.17;42.71
55317;BME280;41178;48.956;8.130;2023-07-20T08:37:07;99741.59;;;21.31;40.97
55317;BME280;41178;48.956;8.130;2023-07-20T08:42:13;99811.88;;;19.83;42.60
55317;BME280;41178;48.956;8.130;2023-07-20T08:47:16;99748.47;;;20.67;41.64
55317;BME280;41178;48.956;8.130;2023-07-20T08:52:18;99786.38;;;20.35;40.64
55317;BME280;41178;48.956;8.130;2023-07-20T08:57:21;99756.13;;;20.70;41.29
55317;BME280;41178;48.956;8.130;2023-07-20T09:02:25;99778.84;;;21.03;40.46
55317;BME280;41178;48.956;8.130;2023-07-20T09:07:28;99724.75;;;21.61;40.29
55317;BME280;41178;48.956;8.130;2023-07-20T09:12:30;99762.81;;;21.07;41.06
55317;BME280;41178;48.956;8.130;2023-07-20T09:17:32;99744.13;;;21.15;41.28
55317;BME280;41178;48.956;8.130;2023-07-20T09:22:34;99769.31;;;21.55;40.16
55317;BME280;41178;48.956;8.130;2023-07-20T09:27:37;99744.63;;;21.94;39.63
55317;BME280;41178;48.956;8.130;2023-07-20T09:32:41;99740.56;;;21.96;38.84
55317;BME280;41178;48.956;8.130;2023-07-20T09:37:49;99673.56;;;22.64;38.96
55317;BME280;41178;48.956;8.130;2023-07-20T09:43:15;99710.31;;;22.46;38.43
55317;BME280;41178;48.956;8.130;2023-07-20T09:48:24;99731.00;;;22.47;38.16
55317;BME280;41178;48.956;8.130;2023-07-20T09:53:29;99747.25;;;22.26;37.83
55317;BME280;41178;48.956;8.130;2023-07-20T09:58:33;99739.34;;;22.73;36.89
55317;BME280;41178;48.956;8.130;2023-07-20T10:03:37;99755.75;;;21.92;37.53
55317;BME280;41178;48.956;8.130;2023-07-20T10:08:41;99704.75;;;22.94;36.69
55317;BME280;41178;48.956;8.130;2023-07-20T10:13:47;99669.56;;;23.02;36.28
55317;BME280;41178;48.956;8.130;2023-07-20T10:18:59;99658.38;;;22.99;36.46
55317;BME280;41178;48.956;8.130;2023-07-20T10:24:04;99716.03;;;22.49;36.83
55317;BME280;41178;48.956;8.130;2023-07-20T10:29:07;99646.09;;;23.94;35.05
55317;BME280;41178;48.956;8.130;2023-07-20T10:34:09;99717.84;;;22.92;36.52
55317;BME280;41178;48.956;8.130;2023-07-20T10:39:25;99714.88;;;21.92;36.74
55317;BME280;41178;48.956;8.130;2023-07-20T10:44:30;99630.56;;;23.43;35.35
55317;BME280;41178;48.956;8.130;2023-07-20T10:49:35;99700.75;;;23.73;34.37
55317;BME280;41178;48.956;8.130;2023-07-20T10:54:47;99660.78;;;24.18;33.63
55317;BME280;41178;48.956;8.130;2023-07-20T10:59:49;99713.25;;;22.34;35.24
55317;BME280;41178;48.956;8.130;2023-07-20T11:11:30;99612.00;;;22.94;34.91
55317;BME280;41178;48.956;8.130;2023-07-20T11:16:42;99626.78;;;23.29;35.41
55317;BME280;41178;48.956;8.130;2023-07-20T11:21:46;99661.34;;;21.71;36.20
55317;BME280;41178;48.956;8.130;2023-07-20T11:27:01;99647.44;;;22.83;36.41
55317;BME280;41178;48.956;8.130;2023-07-20T11:32:03;99641.59;;;22.44;36.00
55317;BME280;41178;48.956;8.130;2023-07-20T11:37:07;99662.19;;;22.87;34.53
55317;BME280;41178;48.956;8.130;2023-07-20T11:42:12;99640.69;;;23.32;34.14
55317;BME280;41178;48.956;8.130;2023-07-20T11:47:14;99602.16;;;23.59;34.88
55317;BME280;41178;48.956;8.130;2023-07-20T11:52:16;99616.00;;;24.04;33.14
55317;BME280;41178;48.956;8.130;2023-07-20T11:57:19;99574.31;;;24.38;33.24
55317;BME280;41178;48.956;8.130;2023-07-20T12:02:21;99593.41;;;23.78;33.23
55317;BME280;41178;48.956;8.130;2023-07-20T12:07:28;99586.78;;;23.94;34.33
55317;BME280;41178;48.956;8.130;2023-07-20T12:12:34;99617.22;;;23.67;33.51
55317;BME280;41178;48.956;8.130;2023-07-20T12:17:42;99594.75;;;23.91;32.15
55317;BME280;41178;48.956;8.130;2023-07-20T12:22:44;99587.09;;;23.88;32.80
55317;BME280;41178;48.956;8.130;2023-07-20T12:27:45;99531.44;;;23.53;32.51
55317;BME280;41178;48.956;8.130;2023-07-20T12:32:49;99595.09;;;23.58;32.57
55317;BME280;41178;48.956;8.130;2023-07-20T12:37:51;99570.66;;;23.98;32.00
55317;BME280;41178;48.956;8.130;2023-07-20T12:42:53;99559.50;;;24.89;31.23
55317;BME280;41178;48.956;8.130;2023-07-20T12:47:54;99547.53;;;23.70;32.81
55317;BME280;41178;48.956;8.130;2023-07-20T12:52:56;99538.59;;;24.69;31.60
55317;BME280;41178;48.956;8.130;2023-07-20T12:57:58;99536.53;;;23.90;32.33
55317;BME280;41178;48.956;8.130;2023-07-20T13:02:59;99527.41;;;24.15;32.34
55317;BME280;41178;48.956;8.130;2023-07-20T13:08:04;99546.84;;;25.27;30.87
55317;BME280;41178;48.956;8.130;2023-07-20T13:13:10;99556.09;;;22.91;31.62
55317;BME280;41178;48.956;8.130;2023-07-20T13:18:11;99519.59;;;24.83;30.44
55317;BME280;41178;48.956;8.130;2023-07-20T13:23:13;99507.69;;;23.53;31.45
55317;BME280;41178;48.956;8.130;2023-07-20T13:28:15;99555.53;;;24.26;30.73
55317;BME280;41178;48.956;8.130;2023-07-20T13:33:17;99531.09;;;25.14;29.87
55317;BME280;41178;48.956;8.130;2023-07-20T13:38:19;99558.25;;;24.71;30.26
55317;BME280;41178;48.956;8.130;2023-07-20T13:43:22;99509.75;;;25.64;30.22
55317;BME280;41178;48.956;8.130;2023-07-20T13:48:23;99523.50;;;25.35;30.51
55317;BME280;41178;48.956;8.130;2023-07-20T13:53:29;99494.81;;;24.69;29.96
55317;BME280;41178;48.956;8.130;2023-07-20T13:58:34;99494.63;;;25.19;29.60
55317;BME280;41178;48.956;8.130;2023-07-20T14:03:36;99547.22;;;24.42;29.41
55317;BME280;41178;48.956;8.130;2023-07-20T14:08:39;99512.41;;;24.08;30.61
55317;BME280;41178;48.956;8.130;2023-07-20T14:13:43;99465.19;;;23.32;30.16
55317;BME280;41178;48.956;8.130;2023-07-20T14:18:49;99428.63;;;25.88;30.09
55317;BME280;41178;48.956;8.130;2023-07-20T14:23:51;99456.84;;;26.07;28.86
55317;BME280;41178;48.956;8.130;2023-07-20T14:28:56;99468.16;;;25.38;27.38
55317;BME280;41178;48.956;8.130;2023-07-20T14:33:58;99500.56;;;24.97;29.48
55317;BME280;41178;48.956;8.130;2023-07-20T14:39:00;99465.13;;;26.40;28.37
55317;BME280;41178;48.956;8.130;2023-07-20T14:44:02;99527.09;;;25.01;28.38
55317;BME280;41178;48.956;8.130;2023-07-20T14:49:04;99486.75;;;24.83;28.86
55317;BME280;41178;48.956;8.130;2023-07-20T14:54:06;99433.25;;;25.68;28.96
55317;BME280;41178;48.956;8.130;2023-07-20T14:59:08;99455.38;;;25.28;29.22
55317;BME280;41178;48.956;8.130;2023-07-20T15:04:10;99454.16;;;25.40;29.33
55317;BME280;41178;48.956;8.130;2023-07-20T15:09:11;99445.28;;;25.72;28.18
55317;BME280;41178;48.956;8.130;2023-07-20T15:14:14;99479.91;;;25.39;28.75
55317;BME280;41178;48.956;8.130;2023-07-20T15:19:15;99417.50;;;26.36;27.26
55317;BME280;41178;48.956;8.130;2023-07-20T15:24:18;99411.00;;;25.94;28.38
55317;BME280;41178;48.956;8.130;2023-07-20T15:29:20;99464.94;;;25.55;28.50
55317;BME280;41178;48.956;8.130;2023-07-20T15:34:25;99445.59;;;25.46;28.06
55317;BME280;41178;48.956;8.130;2023-07-20T15:39:27;99418.31;;;26.17;28.02
55317;BME280;41178;48.956;8.130;2023-07-20T15:44:28;99425.44;;;25.99;27.85
55317;BME280;41178;48.956;8.130;2023-07-20T15:49:31;99386.31;;;26.13;27.64
55317;BME280;41178;48.956;8.130;2023-07-20T15:54:34;99381.56;;;25.42;27.81
55317;BME280;41178;48.956;8.130;2023-07-20T15:59:37;99371.66;;;25.46;28.22
55317;BME280;41178;48.956;8.130;2023-07-20T16:04:39;99367.53;;;25.01;28.19
55317;BME280;41178;48.956;8.130;2023-07-20T16:09:41;99384.66;;;25.98;27.73
55317;BME280;41178;48.956;8.130;2023-07-20T16:14:43;99392.53;;;25.99;27.48
55317;BME280;41178;48.956;8.130;2023-07-20T16:19:48;99345.97;;;25.18;28.07
55317;BME280;41178;48.956;8.130;2023-07-20T16:24:50;99372.91;;;25.54;27.85
55317;BME280;41178;48.956;8.130;2023-07-20T16:29:51;99381.59;;;25.80;28.01
55317;BME280;41178;48.956;8.130;2023-07-20T16:34:53;99381.06;;;25.59;27.89
55317;BME280;41178;48.956;8.130;2023-07-20T16:39:55;99369.06;;;25.74;28.26
55317;BME280;41178;48.956;8.130;2023-07-20T16:44:57;99352.94;;;25.92;28.18
55317;BME280;41178;48.956;8.130;2023-07-20T16:49:59;99383.84;;;25.35;28.56
55317;BME280;41178;48.956;8.130;2023-07-20T16:55:01;99359.88;;;25.46;28.89
55317;BME280;41178;48.956;8.130;2023-07-20T17:00:03;99340.13;;;26.53;27.97
55317;BME280;41178;48.956;8.130;2023-07-20T17:05:08;99362.38;;;24.75;28.60
55317;BME280;41178;48.956;8.130;2023-07-20T17:10:13;99386.75;;;24.96;28.53
55317;BME280;41178;48.956;8.130;2023-07-20T17:15:15;99314.94;;;26.37;27.72
55317;BME280;41178;48.956;8.130;2023-07-20T17:20:18;99330.06;;;25.25;28.19
55317;BME280;41178;48.956;8.130;2023-07-20T17:25:23;99357.81;;;25.76;28.20
55317;BME280;41178;48.956;8.130;2023-07-20T17:30:27;99353.19;;;24.31;29.18
55317;BME280;41178;48.956;8.130;2023-07-20T17:35:30;99320.31;;;25.76;28.59
55317;BME280;41178;48.956;8.130;2023-07-20T17:40:32;99351.31;;;24.85;29.12
55317;BME280;41178;48.956;8.130;2023-07-20T17:45:37;99382.69;;;24.34;29.29
55317;BME280;41178;48.956;8.130;2023-07-20T17:50:39;99338.84;;;24.74;29.15
55317;BME280;41178;48.956;8.130;2023-07-20T17:55:41;99319.97;;;25.21;28.82
55317;BME280;41178;48.956;8.130;2023-07-20T18:00:43;99343.75;;;24.43;29.68
55317;BME280;41178;48.956;8.130;2023-07-20T18:05:45;99328.47;;;24.42;30.04
55317;BME280;41178;48.956;8.130;2023-07-20T18:10:48;99337.34;;;23.94;30.54
55317;BME280;41178;48.956;8.130;2023-07-20T18:15:56;99340.94;;;24.24;30.47
55317;BME280;41178;48.956;8.130;2023-07-20T18:20:58;99326.97;;;24.84;30.01
55317;BME280;41178;48.956;8.130;2023-07-20T18:25:59;99322.09;;;23.88;31.38
55317;BME280;41178;48.956;8.130;2023-07-20T18:31:04;99312.13;;;24.02;31.16
55317;BME280;41178;48.956;8.130;2023-07-20T18:36:07;99319.03;;;24.29;31.21
55317;BME280;41178;48.956;8.130;2023-07-20T18:41:08;99319.69;;;24.15;31.60
55317;BME280;41178;48.956;8.130;2023-07-20T18:46:10;99342.41;;;24.16;31.80
55317;BME280;41178;48.956;8.130;2023-07-20T18:51:12;99302.94;;;25.00;31.07
55317;BME280;41178;48.956;8.130;2023-07-20T18:56:14;99345.31;;;24.25;31.34
55317;BME280;41178;48.956;8.130;2023-07-20T19:01:16;99341.03;;;23.74;32.17
55317;BME280;41178;48.956;8.130;2023-07-20T19:06:18;99302.16;;;24.99;31.57
55317;BME280;41178;48.956;8.130;2023-07-20T19:11:20;99289.06;;;24.96;32.84
55317;BME280;41178;48.956;8.130;2023-07-20T19:16:25;99301.69;;;24.68;33.61
55317;BME280;41178;48.956;8.130;2023-07-20T19:21:27;99307.84;;;25.03;33.32
55317;BME280;41178;48.956;8.130;2023-07-20T19:26:29;99344.50;;;24.24;34.19
55317;BME280;41178;48.956;8.130;2023-07-20T19:31:31;99332.84;;;23.74;34.43
55317;BME280;41178;48.956;8.130;2023-07-20T19:36:33;99350.94;;;24.39;33.29
55317;BME280;41178;48.956;8.130;2023-07-20T19:41:35;99293.78;;;24.08;33.72
55317;BME280;41178;48.956;8.130;2023-07-20T19:46:40;99328.63;;;24.26;32.79
55317;BME280;41178;48.956;8.130;2023-07-20T19:51:42;99335.59;;;24.08;33.75
55317;BME280;41178;48.956;8.130;2023-07-20T19:56:44;99368.75;;;23.41;34.72
55317;BME280;41178;48.956;8.130;2023-07-20T20:01:47;99359.38;;;22.98;35.50
55317;BME280;41178;48.956;8.130;2023-07-20T20:06:48;99341.53;;;23.26;35.29
55317;BME280;41178;48.956;8.130;2023-07-20T20:11:50;99302.34;;;23.96;33.61
55317;BME280;41178;48.956;8.130;2023-07-20T20:16:52;99353.22;;;22.36;36.93
55317;BME280;41178;48.956;8.130;2023-07-20T20:21:54;99299.03;;;24.58;35.00
55317;BME280;41178;48.956;8.130;2023-07-20T20:27:02;99327.47;;;23.53;37.08
55317;BME280;41178;48.956;8.130;2023-07-20T20:32:06;99331.59;;;24.30;36.46
55317;BME280;41178;48.956;8.130;2023-07-20T20:37:08;99345.34;;;23.80;37.37
55317;BME280;41178;48.956;8.130;2023-07-20T20:42:10;99320.00;;;24.09;37.02
55317;BME280;41178;48.956;8.130;2023-07-20T20:47:12;99341.50;;;23.86;36.89
55317;BME280;41178;48.956;8.130;2023-07-20T20:52:14;99313.91;;;23.88;37.46
55317;BME280;41178;48.956;8.130;2023-07-20T20:57:18;99320.31;;;23.68;37.75
55317;BME280;41178;48.956;8.130;2023-07-20T21:02:20;99337.81;;;23.06;39.02
55317;BME280;41178;48.956;8.130;2023-07-20T21:07:22;99355.28;;;21.56;40.06
55317;BME280;41178;48.956;8.130;2023-07-20T21:12:24;99330.47;;;23.62;37.15
55317;BME280;41178;48.956;8.130;2023-07-20T21:17:26;99375.16;;;21.62;36.70
55317;BME280;41178;48.956;8.130;2023-07-20T21:22:29;99323.44;;;21.72;36.84
55317;BME280;41178;48.956;8.130;2023-07-20T21:27:31;99358.41;;;21.22;37.76
55317;BME280;41178;48.956;8.130;2023-07-20T21:32:35;99341.22;;;21.95;37.99
55317;BME280;41178;48.956;8.130;2023-07-20T21:37:37;99322.66;;;22.59;35.08
55317;BME280;41178;48.956;8.130;2023-07-20T21:42:39;99367.31;;;21.81;37.24
55317;BME280;41178;48.956;8.130;2023-07-20T21:47:41;99386.06;;;21.72;37.36
55317;BME280;41178;48.956;8.130;2023-07-20T21:52:43;99317.06;;;23.05;35.44
55317;BME280;41178;48.956;8.130;2023-07-20T21:57:45;99313.34;;;19.49;44.35
55317;BME280;41178;48.956;8.130;2023-07-20T22:02:47;99251.31;;;21.80;40.27
55317;BME280;41178;48.956;8.130;2023-07-20T22:07:49;99324.53;;;22.64;37.83
55317;BME280;41178;48.956;8.130;2023-07-20T22:12:50;99323.53;;;23.30;36.84
55317;BME280;41178;48.956;8.130;2023-07-20T22:17:53;99336.97;;;23.16;37.20
55317;BME280;41178;48.956;8.130;2023-07-20T22:22:56;99346.72;;;23.28;36.46
55317;BME280;41178;48.956;8.130;2023-07-20T22:27:59;99393.88;;;20.90;39.35
55317;BME280;41178;48.956;8.130;2023-07-20T22:33:01;99366.00;;;21.99;38.19
55317;BME280;41178;48.956;8.130;2023-07-20T22:38:03;99357.53;;;22.78;37.15
55317;BME280;41178;48.956;8.130;2023-07-20T22:43:05;99383.19;;;22.46;37.70
55317;BME280;41178;48.956;8.130;2023-07-20T22:48:07;99356.19;;;22.39;37.43
55317;BME280;41178;48.956;8.130;2023-07-20T22:53:08;99336.56;;;22.58;36.91
55317;BME280;41178;48.956;8.130;2023-07-20T22:58:10;99331.91;;;23.44;36.44
55317;BME280;41178;48.956;8.130;2023-07-20T23:03:12;99376.91;;;22.66;37.49
55317;BME280;41178;48.956;8.130;2023-07-20T23:08:14;99376.63;;;22.78;37.64
55317;BME280;41178;48.956;8.130;2023-07-20T23:13:16;99350.97;;;22.74;38.17
55317;BME280;41178;48.956;8.130;2023-07-20T23:18:18;99325.25;;;23.11;37.90
55317;BME280;41178;48.956;8.130;2023-07-20T23:23:20;99355.38;;;22.03;39.27
55317;BME280;41178;48.956;8.130;2023-07-20T23:28:23;99354.31;;;22.04;39.05
55317;BME280;41178;48.956;8.130;2023-07-20T23:33:24;99346.34;;;21.76;39.55
55317;BME280;41178;48.956;8.130;2023-07-20T23:38:26;99346.78;;;20.42;40.74
55317;BME280;41178;48.956;8.130;2023-07-20T23:43:28;99357.94;;;20.13;40.42
55317;BME280;41178;48.956;8.130;2023-07-20T23:48:31;99275.00;;;21.90;38.96
55317;BME280;41178;48.956;8.130;2023-07-20T23:53:41;99285.31;;;22.44;37.69
55317;BME280;41178;48.956;8.130;2023-07-20T23:58:43;99314.69;;;19.02;41.92
